Portada
METAR-TAF:

METAR-TAF

Aeroports :

Japanese Ground Self Defense Force

Tokachi-Obihiro, Japó

latitud: 42-54N, longitud: 143-10E, altitud: 84 m

Observació

L'informe es va fer fa 1 hora i 2 minuts, a les 23:21 UTC
Vent 2 kt amb direcció variable
Temperatura 13°C
Humitat 82%
Pressió 1018 hPa
Visibilitat 10 km o més
Escasses núvols a una alçada de 500 ft
Núvols disperses a una alçada de 800 ft

METAR: RJCT 192321Z VRB02KT 9999 FEW005 SCT008 13/10 Q1018 RMK 1ST005 4ST008 A3006

Hora: 09:23 (00:23 UTC)


TAF: manca

Observacions i pronòstics meteorològics de més de 4000 aeroports (METAR i TAF).

Les estacions disponibles són els punts grocs i vermells al mapa.

Posi el ratolí al punt desitjat per veure el nom de l'estació.

Feu clic per veure les observacions i els pronòstics meteorològics.

Per canviar el mapa: feu clic els botons verds amb una creu de color negre per apropar; al botó verd amb un guió per allunyar la imatge; o en les fletxes verdes per a mapes adjacents.


METAR-TAF: